sensor_id;sensor_type;location;lat;lon;timestamp;temperature;humidity
53422;DHT22;39319;52.944;5.928;2023-08-30T00:00:44;16.70;99.80
53422;DHT22;39319;52.944;5.928;2023-08-30T00:03:11;16.70;99.90
53422;DHT22;39319;52.944;5.928;2023-08-30T00:05:41;16.70;99.90
53422;DHT22;39319;52.944;5.928;2023-08-30T00:08:07;16.70;99.90
53422;DHT22;39319;52.944;5.928;2023-08-30T00:10:33;16.80;99.90
53422;DHT22;39319;52.944;5.928;2023-08-30T00:12:59;16.60;99.90
53422;DHT22;39319;52.944;5.928;2023-08-30T00:15:24;16.70;99.90
53422;DHT22;39319;52.944;5.928;2023-08-30T00:17:51;16.60;99.90
53422;DHT22;39319;52.944;5.928;2023-08-30T00:20:20;16.60;99.90
53422;DHT22;39319;52.944;5.928;2023-08-30T00:22:47;16.60;99.90
53422;DHT22;39319;52.944;5.928;2023-08-30T00:25:14;16.60;99.90
53422;DHT22;39319;52.944;5.928;2023-08-30T00:27:40;16.60;99.90
53422;DHT22;39319;52.944;5.928;2023-08-30T00:30:06;16.60;99.90
53422;DHT22;39319;52.944;5.928;2023-08-30T00:32:33;16.60;99.90
53422;DHT22;39319;52.944;5.928;2023-08-30T00:34:59;16.60;99.70
53422;DHT22;39319;52.944;5.928;2023-08-30T00:37:25;16.50;99.90
53422;DHT22;39319;52.944;5.928;2023-08-30T00:39:50;16.60;99.90
53422;DHT22;39319;52.944;5.928;2023-08-30T00:42:16;16.60;99.90
53422;DHT22;39319;52.944;5.928;2023-08-30T00:44:42;16.60;99.80
53422;DHT22;39319;52.944;5.928;2023-08-30T00:47:08;16.50;99.80
53422;DHT22;39319;52.944;5.928;2023-08-30T00:49:34;16.40;99.80
53422;DHT22;39319;52.944;5.928;2023-08-30T00:52:02;16.50;99.90
53422;DHT22;39319;52.944;5.928;2023-08-30T00:54:29;16.40;99.80
53422;DHT22;39319;52.944;5.928;2023-08-30T00:56:55;16.40;99.60
53422;DHT22;39319;52.944;5.928;2023-08-30T00:59:23;16.30;99.60
53422;DHT22;39319;52.944;5.928;2023-08-30T01:01:49;16.30;99.50
53422;DHT22;39319;52.944;5.928;2023-08-30T01:04:17;16.30;99.50
53422;DHT22;39319;52.944;5.928;2023-08-30T01:06:43;16.20;99.50
53422;DHT22;39319;52.944;5.928;2023-08-30T01:09:09;16.20;99.40
53422;DHT22;39319;52.944;5.928;2023-08-30T01:14:20;16.10;99.30
53422;DHT22;39319;52.944;5.928;2023-08-30T01:16:46;16.10;99.20
53422;DHT22;39319;52.944;5.928;2023-08-30T01:27:16;15.90;99.00
53422;DHT22;39319;52.944;5.928;2023-08-30T01:29:47;16.00;99.00
53422;DHT22;39319;52.944;5.928;2023-08-30T01:32:14;15.90;99.10
53422;DHT22;39319;52.944;5.928;2023-08-30T01:34:42;15.80;99.00
53422;DHT22;39319;52.944;5.928;2023-08-30T01:37:11;15.70;99.00
53422;DHT22;39319;52.944;5.928;2023-08-30T01:39:40;15.70;99.10
53422;DHT22;39319;52.944;5.928;2023-08-30T01:42:07;15.70;98.90
53422;DHT22;39319;52.944;5.928;2023-08-30T01:44:33;15.60;99.00
53422;DHT22;39319;52.944;5.928;2023-08-30T01:47:00;15.60;99.00
53422;DHT22;39319;52.944;5.928;2023-08-30T01:49:29;15.50;99.00
53422;DHT22;39319;52.944;5.928;2023-08-30T01:51:58;15.60;98.90
53422;DHT22;39319;52.944;5.928;2023-08-30T01:54:27;15.50;98.90
53422;DHT22;39319;52.944;5.928;2023-08-30T01:56:53;15.40;98.90
53422;DHT22;39319;52.944;5.928;2023-08-30T01:59:19;15.50;99.00
53422;DHT22;39319;52.944;5.928;2023-08-30T02:01:44;15.40;98.80
53422;DHT22;39319;52.944;5.928;2023-08-30T02:04:10;15.40;98.80
53422;DHT22;39319;52.944;5.928;2023-08-30T02:06:47;15.30;98.80
53422;DHT22;39319;52.944;5.928;2023-08-30T02:09:26;15.30;98.90
53422;DHT22;39319;52.944;5.928;2023-08-30T02:11:54;15.30;98.90
53422;DHT22;39319;52.944;5.928;2023-08-30T02:14:21;15.20;99.10
53422;DHT22;39319;52.944;5.928;2023-08-30T02:16:47;15.20;98.90
53422;DHT22;39319;52.944;5.928;2023-08-30T02:19:14;15.20;98.90
53422;DHT22;39319;52.944;5.928;2023-08-30T02:21:46;15.20;99.10
53422;DHT22;39319;52.944;5.928;2023-08-30T02:24:13;15.30;99.10
53422;DHT22;39319;52.944;5.928;2023-08-30T02:26:39;15.20;99.20
53422;DHT22;39319;52.944;5.928;2023-08-30T02:29:05;15.10;99.10
53422;DHT22;39319;52.944;5.928;2023-08-30T02:31:31;15.20;99.10
53422;DHT22;39319;52.944;5.928;2023-08-30T02:33:57;15.20;99.10
53422;DHT22;39319;52.944;5.928;2023-08-30T02:36:22;15.10;99.10
53422;DHT22;39319;52.944;5.928;2023-08-30T02:38:48;15.10;99.10
53422;DHT22;39319;52.944;5.928;2023-08-30T02:41:13;15.00;99.20
53422;DHT22;39319;52.944;5.928;2023-08-30T02:43:39;15.10;99.30
53422;DHT22;39319;52.944;5.928;2023-08-30T02:46:05;15.20;99.30
53422;DHT22;39319;52.944;5.928;2023-08-30T02:48:32;15.20;99.50
53422;DHT22;39319;52.944;5.928;2023-08-30T02:50:57;15.20;99.60
53422;DHT22;39319;52.944;5.928;2023-08-30T02:53:23;15.30;99.70
53422;DHT22;39319;52.944;5.928;2023-08-30T02:55:49;15.30;99.80
53422;DHT22;39319;52.944;5.928;2023-08-30T02:58:15;15.30;99.80
53422;DHT22;39319;52.944;5.928;2023-08-30T03:00:40;15.50;99.90
53422;DHT22;39319;52.944;5.928;2023-08-30T03:03:06;15.40;99.80
53422;DHT22;39319;52.944;5.928;2023-08-30T03:05:32;15.50;99.90
53422;DHT22;39319;52.944;5.928;2023-08-30T03:07:58;15.40;99.90
53422;DHT22;39319;52.944;5.928;2023-08-30T03:10:24;15.40;99.90
53422;DHT22;39319;52.944;5.928;2023-08-30T03:12:50;15.40;99.90
53422;DHT22;39319;52.944;5.928;2023-08-30T03:15:16;15.40;99.90
53422;DHT22;39319;52.944;5.928;2023-08-30T03:17:42;15.50;99.90
53422;DHT22;39319;52.944;5.928;2023-08-30T03:20:08;15.60;99.90
53422;DHT22;39319;52.944;5.928;2023-08-30T03:22:34;15.60;99.90
53422;DHT22;39319;52.944;5.928;2023-08-30T03:25:00;15.60;99.90
53422;DHT22;39319;52.944;5.928;2023-08-30T03:27:28;15.60;99.90
53422;DHT22;39319;52.944;5.928;2023-08-30T03:29:55;15.60;99.80
53422;DHT22;39319;52.944;5.928;2023-08-30T03:32:21;15.60;99.70
53422;DHT22;39319;52.944;5.928;2023-08-30T03:34:47;15.50;99.70
53422;DHT22;39319;52.944;5.928;2023-08-30T03:37:16;15.50;99.60
53422;DHT22;39319;52.944;5.928;2023-08-30T03:39:42;15.60;99.70
53422;DHT22;39319;52.944;5.928;2023-08-30T03:42:08;15.40;99.60
53422;DHT22;39319;52.944;5.928;2023-08-30T03:44:34;15.50;99.60
53422;DHT22;39319;52.944;5.928;2023-08-30T03:46:59;15.40;99.60
53422;DHT22;39319;52.944;5.928;2023-08-30T03:49:25;15.40;99.60
53422;DHT22;39319;52.944;5.928;2023-08-30T03:51:51;15.40;99.50
53422;DHT22;39319;52.944;5.928;2023-08-30T03:54:17;15.40;99.60
53422;DHT22;39319;52.944;5.928;2023-08-30T03:56:43;15.30;99.70
53422;DHT22;39319;52.944;5.928;2023-08-30T03:59:10;15.40;99.70
53422;DHT22;39319;52.944;5.928;2023-08-30T04:01:35;15.30;99.70
53422;DHT22;39319;52.944;5.928;2023-08-30T04:04:01;15.40;99.90
53422;DHT22;39319;52.944;5.928;2023-08-30T04:06:27;15.40;99.90
53422;DHT22;39319;52.944;5.928;2023-08-30T04:08:53;15.40;99.90
53422;DHT22;39319;52.944;5.928;2023-08-30T04:11:19;15.40;99.90
53422;DHT22;39319;52.944;5.928;2023-08-30T04:13:44;15.40;99.90
53422;DHT22;39319;52.944;5.928;2023-08-30T04:16:10;15.40;99.90
53422;DHT22;39319;52.944;5.928;2023-08-30T04:18:36;15.50;99.90
53422;DHT22;39319;52.944;5.928;2023-08-30T04:21:02;15.40;99.90
53422;DHT22;39319;52.944;5.928;2023-08-30T04:23:29;15.50;99.90
53422;DHT22;39319;52.944;5.928;2023-08-30T04:25:55;15.50;99.90
53422;DHT22;39319;52.944;5.928;2023-08-30T04:28:21;15.50;99.90
53422;DHT22;39319;52.944;5.928;2023-08-30T04:30:47;15.50;99.90
53422;DHT22;39319;52.944;5.928;2023-08-30T04:33:13;15.60;99.90
53422;DHT22;39319;52.944;5.928;2023-08-30T04:35:39;15.50;99.90
53422;DHT22;39319;52.944;5.928;2023-08-30T04:38:05;15.50;99.90
53422;DHT22;39319;52.944;5.928;2023-08-30T04:40:31;15.60;99.90
53422;DHT22;39319;52.944;5.928;2023-08-30T04:43:00;15.60;99.90
53422;DHT22;39319;52.944;5.928;2023-08-30T04:45:26;15.60;99.90
53422;DHT22;39319;52.944;5.928;2023-08-30T04:47:53;15.60;99.90
53422;DHT22;39319;52.944;5.928;2023-08-30T04:50:19;15.60;99.90
53422;DHT22;39319;52.944;5.928;2023-08-30T04:52:45;15.60;99.90
53422;DHT22;39319;52.944;5.928;2023-08-30T04:55:10;15.70;99.90
53422;DHT22;39319;52.944;5.928;2023-08-30T04:57:36;15.70;99.90
53422;DHT22;39319;52.944;5.928;2023-08-30T05:00:02;15.70;99.90
53422;DHT22;39319;52.944;5.928;2023-08-30T05:02:32;15.70;99.90
53422;DHT22;39319;52.944;5.928;2023-08-30T05:04:58;15.70;99.90
53422;DHT22;39319;52.944;5.928;2023-08-30T05:07:24;15.70;99.90
53422;DHT22;39319;52.944;5.928;2023-08-30T05:09:49;15.80;99.90
53422;DHT22;39319;52.944;5.928;2023-08-30T05:12:15;15.90;99.90
53422;DHT22;39319;52.944;5.928;2023-08-30T05:14:41;15.80;99.90
53422;DHT22;39319;52.944;5.928;2023-08-30T05:17:07;15.90;99.90
53422;DHT22;39319;52.944;5.928;2023-08-30T05:19:33;15.90;99.90
53422;DHT22;39319;52.944;5.928;2023-08-30T05:21:58;15.90;99.90
53422;DHT22;39319;52.944;5.928;2023-08-30T05:24:24;15.90;99.90
53422;DHT22;39319;52.944;5.928;2023-08-30T05:26:52;15.90;99.90
53422;DHT22;39319;52.944;5.928;2023-08-30T05:29:17;15.90;99.90
53422;DHT22;39319;52.944;5.928;2023-08-30T05:31:43;15.90;99.90
53422;DHT22;39319;52.944;5.928;2023-08-30T05:34:10;15.90;99.90
53422;DHT22;39319;52.944;5.928;2023-08-30T05:36:36;15.90;99.90
53422;DHT22;39319;52.944;5.928;2023-08-30T05:39:02;15.90;99.90
53422;DHT22;39319;52.944;5.928;2023-08-30T05:41:29;15.90;99.90
53422;DHT22;39319;52.944;5.928;2023-08-30T05:43:55;16.00;99.90
53422;DHT22;39319;52.944;5.928;2023-08-30T05:46:21;16.00;99.90
53422;DHT22;39319;52.944;5.928;2023-08-30T05:48:47;16.00;99.90
53422;DHT22;39319;52.944;5.928;2023-08-30T05:51:13;16.00;99.90
53422;DHT22;39319;52.944;5.928;2023-08-30T05:53:38;16.10;99.90
53422;DHT22;39319;52.944;5.928;2023-08-30T05:56:04;16.00;99.90
53422;DHT22;39319;52.944;5.928;2023-08-30T05:58:30;16.00;99.90
53422;DHT22;39319;52.944;5.928;2023-08-30T06:00:56;16.10;99.90
53422;DHT22;39319;52.944;5.928;2023-08-30T06:03:22;16.00;99.90
53422;DHT22;39319;52.944;5.928;2023-08-30T06:05:48;16.10;99.90
53422;DHT22;39319;52.944;5.928;2023-08-30T06:08:14;16.10;99.90
53422;DHT22;39319;52.944;5.928;2023-08-30T06:10:40;16.10;99.90
53422;DHT22;39319;52.944;5.928;2023-08-30T06:13:06;16.10;99.90
53422;DHT22;39319;52.944;5.928;2023-08-30T06:15:32;16.10;99.90
53422;DHT22;39319;52.944;5.928;2023-08-30T06:17:59;16.10;99.90
53422;DHT22;39319;52.944;5.928;2023-08-30T06:20:24;16.10;99.90
53422;DHT22;39319;52.944;5.928;2023-08-30T06:22:50;16.10;99.90
53422;DHT22;39319;52.944;5.928;2023-08-30T06:25:16;16.10;99.90
53422;DHT22;39319;52.944;5.928;2023-08-30T06:27:43;16.10;99.90
53422;DHT22;39319;52.944;5.928;2023-08-30T06:30:10;16.10;99.90
53422;DHT22;39319;52.944;5.928;2023-08-30T06:32:36;16.10;99.90
53422;DHT22;39319;52.944;5.928;2023-08-30T06:35:01;16.10;99.90
53422;DHT22;39319;52.944;5.928;2023-08-30T06:37:28;16.10;99.90
53422;DHT22;39319;52.944;5.928;2023-08-30T06:39:53;16.10;99.90
53422;DHT22;39319;52.944;5.928;2023-08-30T06:42:19;16.10;99.90
53422;DHT22;39319;52.944;5.928;2023-08-30T06:44:45;16.10;99.90
53422;DHT22;39319;52.944;5.928;2023-08-30T06:47:11;16.20;99.90
53422;DHT22;39319;52.944;5.928;2023-08-30T06:49:39;16.20;99.90
53422;DHT22;39319;52.944;5.928;2023-08-30T06:52:05;16.20;99.90
53422;DHT22;39319;52.944;5.928;2023-08-30T06:54:33;16.40;99.90
53422;DHT22;39319;52.944;5.928;2023-08-30T06:57:04;16.50;99.40
53422;DHT22;39319;52.944;5.928;2023-08-30T06:59:32;16.60;99.50
53422;DHT22;39319;52.944;5.928;2023-08-30T07:01:58;16.70;98.80
53422;DHT22;39319;52.944;5.928;2023-08-30T07:04:24;16.80;98.90
53422;DHT22;39319;52.944;5.928;2023-08-30T07:06:52;16.90;98.10
53422;DHT22;39319;52.944;5.928;2023-08-30T07:09:18;16.90;98.30
53422;DHT22;39319;52.944;5.928;2023-08-30T07:11:44;17.00;98.10
53422;DHT22;39319;52.944;5.928;2023-08-30T07:14:12;17.10;98.20
53422;DHT22;39319;52.944;5.928;2023-08-30T07:16:40;17.20;98.40
53422;DHT22;39319;52.944;5.928;2023-08-30T07:19:06;17.20;97.80
53422;DHT22;39319;52.944;5.928;2023-08-30T07:21:35;17.20;97.60
53422;DHT22;39319;52.944;5.928;2023-08-30T07:24:04;17.20;97.50
53422;DHT22;39319;52.944;5.928;2023-08-30T07:26:30;17.30;98.30
53422;DHT22;39319;52.944;5.928;2023-08-30T07:28:58;17.20;98.70
53422;DHT22;39319;52.944;5.928;2023-08-30T07:31:23;17.30;97.80
53422;DHT22;39319;52.944;5.928;2023-08-30T07:33:49;17.30;97.70
53422;DHT22;39319;52.944;5.928;2023-08-30T07:36:15;17.30;97.90
53422;DHT22;39319;52.944;5.928;2023-08-30T07:38:40;17.30;97.90
53422;DHT22;39319;52.944;5.928;2023-08-30T07:41:06;17.30;97.40
53422;DHT22;39319;52.944;5.928;2023-08-30T07:43:32;17.30;98.00
53422;DHT22;39319;52.944;5.928;2023-08-30T07:45:58;17.40;98.30
53422;DHT22;39319;52.944;5.928;2023-08-30T07:48:24;17.40;97.70
53422;DHT22;39319;52.944;5.928;2023-08-30T07:50:50;17.40;97.60
53422;DHT22;39319;52.944;5.928;2023-08-30T07:53:16;17.40;97.90
53422;DHT22;39319;52.944;5.928;2023-08-30T07:55:42;17.50;98.00
53422;DHT22;39319;52.944;5.928;2023-08-30T07:58:07;17.50;97.70
53422;DHT22;39319;52.944;5.928;2023-08-30T08:00:35;17.50;97.40
53422;DHT22;39319;52.944;5.928;2023-08-30T08:03:01;17.60;96.50
53422;DHT22;39319;52.944;5.928;2023-08-30T08:05:27;17.60;96.90
53422;DHT22;39319;52.944;5.928;2023-08-30T08:07:54;17.60;96.40
53422;DHT22;39319;52.944;5.928;2023-08-30T08:10:20;17.50;97.00
53422;DHT22;39319;52.944;5.928;2023-08-30T08:12:46;17.50;97.10
53422;DHT22;39319;52.944;5.928;2023-08-30T08:15:11;17.50;96.90
53422;DHT22;39319;52.944;5.928;2023-08-30T08:17:37;17.50;96.70
53422;DHT22;39319;52.944;5.928;2023-08-30T08:20:04;17.50;96.50
53422;DHT22;39319;52.944;5.928;2023-08-30T08:22:31;17.60;96.40
53422;DHT22;39319;52.944;5.928;2023-08-30T08:24:57;17.50;96.70
53422;DHT22;39319;52.944;5.928;2023-08-30T08:27:24;17.50;97.00
53422;DHT22;39319;52.944;5.928;2023-08-30T08:29:50;17.50;96.40
53422;DHT22;39319;52.944;5.928;2023-08-30T08:32:16;17.50;96.50
53422;DHT22;39319;52.944;5.928;2023-08-30T08:34:42;17.50;96.70
53422;DHT22;39319;52.944;5.928;2023-08-30T08:37:08;17.50;96.90
53422;DHT22;39319;52.944;5.928;2023-08-30T08:39:33;17.60;96.80
53422;DHT22;39319;52.944;5.928;2023-08-30T08:41:59;17.50;96.60
53422;DHT22;39319;52.944;5.928;2023-08-30T08:44:27;17.50;96.60
53422;DHT22;39319;52.944;5.928;2023-08-30T08:46:56;17.60;96.60
53422;DHT22;39319;52.944;5.928;2023-08-30T08:49:23;17.60;96.70
53422;DHT22;39319;52.944;5.928;2023-08-30T08:51:54;17.60;96.60
53422;DHT22;39319;52.944;5.928;2023-08-30T08:54:20;17.50;96.60
53422;DHT22;39319;52.944;5.928;2023-08-30T08:56:49;17.50;96.80
53422;DHT22;39319;52.944;5.928;2023-08-30T08:59:15;17.50;96.60
53422;DHT22;39319;52.944;5.928;2023-08-30T09:01:41;17.50;96.90
53422;DHT22;39319;52.944;5.928;2023-08-30T09:04:08;17.50;97.30
53422;DHT22;39319;52.944;5.928;2023-08-30T09:06:35;17.60;96.90
53422;DHT22;39319;52.944;5.928;2023-08-30T09:09:03;17.60;96.90
53422;DHT22;39319;52.944;5.928;2023-08-30T09:11:29;17.50;97.10
53422;DHT22;39319;52.944;5.928;2023-08-30T09:13:55;17.50;96.90
53422;DHT22;39319;52.944;5.928;2023-08-30T09:16:21;18.50;97.30
53422;DHT22;39319;52.944;5.928;2023-08-30T09:18:58;17.60;96.80
53422;DHT22;39319;52.944;5.928;2023-08-30T09:21:24;17.60;97.50
53422;DHT22;39319;52.944;5.928;2023-08-30T09:24:04;17.60;97.20
53422;DHT22;39319;52.944;5.928;2023-08-30T09:26:31;17.70;97.30
53422;DHT22;39319;52.944;5.928;2023-08-30T09:29:06;17.70;97.40
53422;DHT22;39319;52.944;5.928;2023-08-30T09:31:39;17.70;97.50
53422;DHT22;39319;52.944;5.928;2023-08-30T09:34:08;17.70;97.50
53422;DHT22;39319;52.944;5.928;2023-08-30T09:36:40;17.70;97.30
53422;DHT22;39319;52.944;5.928;2023-08-30T09:39:11;17.70;97.90
53422;DHT22;39319;52.944;5.928;2023-08-30T09:41:44;17.70;98.10
53422;DHT22;39319;52.944;5.928;2023-08-30T09:44:15;17.70;97.90
53422;DHT22;39319;52.944;5.928;2023-08-30T09:46:54;17.80;98.30
53422;DHT22;39319;52.944;5.928;2023-08-30T09:49:25;17.80;98.10
53422;DHT22;39319;52.944;5.928;2023-08-30T09:51:53;17.90;98.40
53422;DHT22;39319;52.944;5.928;2023-08-30T09:54:20;17.90;98.60
53422;DHT22;39319;52.944;5.928;2023-08-30T09:56:47;18.00;98.90
53422;DHT22;39319;52.944;5.928;2023-08-30T09:59:15;18.10;98.80
53422;DHT22;39319;52.944;5.928;2023-08-30T10:01:42;18.20;98.50
53422;DHT22;39319;52.944;5.928;2023-08-30T10:04:09;20.10;98.60
53422;DHT22;39319;52.944;5.928;2023-08-30T10:06:39;18.30;98.10
53422;DHT22;39319;52.944;5.928;2023-08-30T10:09:06;18.40;98.50
53422;DHT22;39319;52.944;5.928;2023-08-30T10:11:37;18.40;97.80
53422;DHT22;39319;52.944;5.928;2023-08-30T10:14:04;18.50;97.70
53422;DHT22;39319;52.944;5.928;2023-08-30T10:16:42;18.50;98.00
53422;DHT22;39319;52.944;5.928;2023-08-30T10:21:48;18.50;97.30
53422;DHT22;39319;52.944;5.928;2023-08-30T10:24:17;18.50;97.50
53422;DHT22;39319;52.944;5.928;2023-08-30T10:26:45;18.30;97.10
53422;DHT22;39319;52.944;5.928;2023-08-30T10:29:13;18.40;97.50
53422;DHT22;39319;52.944;5.928;2023-08-30T10:31:40;18.30;97.40
53422;DHT22;39319;52.944;5.928;2023-08-30T10:34:17;18.30;97.10
53422;DHT22;39319;52.944;5.928;2023-08-30T10:36:43;18.30;97.80
53422;DHT22;39319;52.944;5.928;2023-08-30T10:39:14;18.20;97.90
53422;DHT22;39319;52.944;5.928;2023-08-30T10:41:58;18.20;98.10
53422;DHT22;39319;52.944;5.928;2023-08-30T10:44:24;18.20;98.10
53422;DHT22;39319;52.944;5.928;2023-08-30T10:46:54;18.20;98.30
53422;DHT22;39319;52.944;5.928;2023-08-30T10:49:20;18.20;98.30
53422;DHT22;39319;52.944;5.928;2023-08-30T10:51:54;18.20;98.30
53422;DHT22;39319;52.944;5.928;2023-08-30T10:54:21;18.20;98.20
53422;DHT22;39319;52.944;5.928;2023-08-30T10:56:55;18.20;98.10
53422;DHT22;39319;52.944;5.928;2023-08-30T10:59:23;18.20;98.40
53422;DHT22;39319;52.944;5.928;2023-08-30T11:01:50;18.20;98.30
53422;DHT22;39319;52.944;5.928;2023-08-30T11:04:19;18.20;98.50
53422;DHT22;39319;52.944;5.928;2023-08-30T11:06:46;18.30;98.40
53422;DHT22;39319;52.944;5.928;2023-08-30T11:09:14;18.30;98.40
53422;DHT22;39319;52.944;5.928;2023-08-30T11:11:40;18.40;98.20
53422;DHT22;39319;52.944;5.928;2023-08-30T11:14:07;18.40;97.90
53422;DHT22;39319;52.944;5.928;2023-08-30T11:16:34;18.40;98.20
53422;DHT22;39319;52.944;5.928;2023-08-30T11:19:01;18.40;98.70
53422;DHT22;39319;52.944;5.928;2023-08-30T11:21:30;18.50;98.90
53422;DHT22;39319;52.944;5.928;2023-08-30T11:23:56;18.50;98.90
53422;DHT22;39319;52.944;5.928;2023-08-30T11:26:22;18.50;98.80
53422;DHT22;39319;52.944;5.928;2023-08-30T11:28:48;18.40;98.90
53422;DHT22;39319;52.944;5.928;2023-08-30T11:31:21;18.40;99.00
53422;DHT22;39319;52.944;5.928;2023-08-30T11:33:58;18.50;99.10
53422;DHT22;39319;52.944;5.928;2023-08-30T11:36:31;18.40;99.10
53422;DHT22;39319;52.944;5.928;2023-08-30T11:38:57;18.40;98.90
53422;DHT22;39319;52.944;5.928;2023-08-30T11:41:24;18.30;99.20
53422;DHT22;39319;52.944;5.928;2023-08-30T11:43:51;18.30;99.00
53422;DHT22;39319;52.944;5.928;2023-08-30T11:46:17;18.30;99.50
53422;DHT22;39319;52.944;5.928;2023-08-30T11:48:45;18.30;99.50
53422;DHT22;39319;52.944;5.928;2023-08-30T11:51:11;18.20;99.80
53422;DHT22;39319;52.944;5.928;2023-08-30T11:53:38;18.20;99.80
53422;DHT22;39319;52.944;5.928;2023-08-30T11:56:07;18.20;99.70
53422;DHT22;39319;52.944;5.928;2023-08-30T11:58:34;18.10;99.70
53422;DHT22;39319;52.944;5.928;2023-08-30T12:01:00;18.20;99.90
53422;DHT22;39319;52.944;5.928;2023-08-30T12:03:30;18.10;99.90
53422;DHT22;39319;52.944;5.928;2023-08-30T12:05:57;18.10;99.90
53422;DHT22;39319;52.944;5.928;2023-08-30T12:08:29;18.10;99.90
53422;DHT22;39319;52.944;5.928;2023-08-30T12:10:56;18.10;99.90
53422;DHT22;39319;52.944;5.928;2023-08-30T12:13:33;18.00;99.90
53422;DHT22;39319;52.944;5.928;2023-08-30T12:15:59;18.00;99.90
53422;DHT22;39319;52.944;5.928;2023-08-30T12:18:32;17.90;99.90
53422;DHT22;39319;52.944;5.928;2023-08-30T12:21:01;17.90;99.90
53422;DHT22;39319;52.944;5.928;2023-08-30T12:23:31;17.90;99.90
53422;DHT22;39319;52.944;5.928;2023-08-30T12:26:03;17.90;99.90
53422;DHT22;39319;52.944;5.928;2023-08-30T12:28:31;17.80;99.90
53422;DHT22;39319;52.944;5.928;2023-08-30T12:30:58;17.80;99.90
53422;DHT22;39319;52.944;5.928;2023-08-30T12:33:24;17.70;99.90
53422;DHT22;39319;52.944;5.928;2023-08-30T12:35:51;17.70;99.90
53422;DHT22;39319;52.944;5.928;2023-08-30T12:38:17;17.70;99.90
53422;DHT22;39319;52.944;5.928;2023-08-30T12:40:47;17.70;99.90
53422;DHT22;39319;52.944;5.928;2023-08-30T12:43:15;17.70;99.90
53422;DHT22;39319;52.944;5.928;2023-08-30T12:45:42;17.70;99.90
53422;DHT22;39319;52.944;5.928;2023-08-30T12:48:09;17.70;99.90
53422;DHT22;39319;52.944;5.928;2023-08-30T12:50:35;17.80;99.90
53422;DHT22;39319;52.944;5.928;2023-08-30T12:53:06;17.80;99.90
53422;DHT22;39319;52.944;5.928;2023-08-30T12:55:33;17.80;99.90
53422;DHT22;39319;52.944;5.928;2023-08-30T12:58:00;17.80;99.90
53422;DHT22;39319;52.944;5.928;2023-08-30T13:00:26;17.80;99.90
53422;DHT22;39319;52.944;5.928;2023-08-30T13:02:52;17.80;99.90
53422;DHT22;39319;52.944;5.928;2023-08-30T13:05:18;17.80;99.90
53422;DHT22;39319;52.944;5.928;2023-08-30T13:07:43;17.70;99.90
53422;DHT22;39319;52.944;5.928;2023-08-30T13:10:09;17.70;99.90
53422;DHT22;39319;52.944;5.928;2023-08-30T13:12:36;17.80;99.90
53422;DHT22;39319;52.944;5.928;2023-08-30T13:15:02;17.80;99.90
53422;DHT22;39319;52.944;5.928;2023-08-30T13:17:28;17.80;99.90
53422;DHT22;39319;52.944;5.928;2023-08-30T13:19:56;17.80;99.90
53422;DHT22;39319;52.944;5.928;2023-08-30T13:22:24;17.90;99.90
53422;DHT22;39319;52.944;5.928;2023-08-30T13:24:50;17.80;99.90
53422;DHT22;39319;52.944;5.928;2023-08-30T13:27:16;17.80;99.90
53422;DHT22;39319;52.944;5.928;2023-08-30T13:29:44;17.80;99.90
53422;DHT22;39319;52.944;5.928;2023-08-30T13:32:10;18.10;99.90
53422;DHT22;39319;52.944;5.928;2023-08-30T13:34:36;18.10;99.90
53422;DHT22;39319;52.944;5.928;2023-08-30T13:37:01;18.20;99.90
53422;DHT22;39319;52.944;5.928;2023-08-30T13:39:27;18.30;99.90
53422;DHT22;39319;52.944;5.928;2023-08-30T13:41:53;18.30;99.90
53422;DHT22;39319;52.944;5.928;2023-08-30T13:44:18;18.30;99.90
53422;DHT22;39319;52.944;5.928;2023-08-30T13:46:44;18.40;99.90
53422;DHT22;39319;52.944;5.928;2023-08-30T13:49:13;18.60;99.90
53422;DHT22;39319;52.944;5.928;2023-08-30T13:51:39;18.80;99.90
53422;DHT22;39319;52.944;5.928;2023-08-30T13:54:04;18.80;99.90
53422;DHT22;39319;52.944;5.928;2023-08-30T13:56:30;18.90;99.90
53422;DHT22;39319;52.944;5.928;2023-08-30T13:58:57;19.00;99.90
53422;DHT22;39319;52.944;5.928;2023-08-30T14:01:23;19.00;99.90
53422;DHT22;39319;52.944;5.928;2023-08-30T14:03:49;19.10;99.90
53422;DHT22;39319;52.944;5.928;2023-08-30T14:06:14;19.30;99.90
53422;DHT22;39319;52.944;5.928;2023-08-30T14:08:41;19.50;99.90
53422;DHT22;39319;52.944;5.928;2023-08-30T14:11:06;19.60;99.70
53422;DHT22;39319;52.944;5.928;2023-08-30T14:13:32;19.60;99.90
53422;DHT22;39319;52.944;5.928;2023-08-30T14:16:02;19.70;99.60
53422;DHT22;39319;52.944;5.928;2023-08-30T14:18:31;19.90;99.70
53422;DHT22;39319;52.944;5.928;2023-08-30T14:21:00;19.90;99.70
53422;DHT22;39319;52.944;5.928;2023-08-30T14:23:27;19.90;98.90
53422;DHT22;39319;52.944;5.928;2023-08-30T14:26:02;19.90;98.90
53422;DHT22;39319;52.944;5.928;2023-08-30T14:28:34;19.90;98.50
53422;DHT22;39319;52.944;5.928;2023-08-30T14:31:01;19.90;99.00
53422;DHT22;39319;52.944;5.928;2023-08-30T14:33:26;19.80;98.60
53422;DHT22;39319;52.944;5.928;2023-08-30T14:35:52;19.80;98.60
53422;DHT22;39319;52.944;5.928;2023-08-30T14:38:18;19.90;98.60
53422;DHT22;39319;52.944;5.928;2023-08-30T14:40:43;19.80;98.30
53422;DHT22;39319;52.944;5.928;2023-08-30T14:43:09;19.90;97.70
53422;DHT22;39319;52.944;5.928;2023-08-30T14:45:35;20.10;97.50
53422;DHT22;39319;52.944;5.928;2023-08-30T14:48:01;20.40;96.00
53422;DHT22;39319;52.944;5.928;2023-08-30T14:50:26;20.40;95.00
53422;DHT22;39319;52.944;5.928;2023-08-30T14:52:52;20.40;94.70
53422;DHT22;39319;52.944;5.928;2023-08-30T14:55:20;20.40;94.00
53422;DHT22;39319;52.944;5.928;2023-08-30T14:57:46;20.30;94.30
53422;DHT22;39319;52.944;5.928;2023-08-30T15:00:12;20.20;94.30
53422;DHT22;39319;52.944;5.928;2023-08-30T15:02:38;20.20;95.00
53422;DHT22;39319;52.944;5.928;2023-08-30T15:05:04;20.00;95.20
53422;DHT22;39319;52.944;5.928;2023-08-30T15:07:29;20.00;95.20
53422;DHT22;39319;52.944;5.928;2023-08-30T15:09:55;20.00;95.30
53422;DHT22;39319;52.944;5.928;2023-08-30T15:12:21;19.90;95.50
53422;DHT22;39319;52.944;5.928;2023-08-30T15:14:46;19.90;95.50
53422;DHT22;39319;52.944;5.928;2023-08-30T15:17:14;19.90;95.50
53422;DHT22;39319;52.944;5.928;2023-08-30T15:19:41;20.10;95.40
53422;DHT22;39319;52.944;5.928;2023-08-30T15:22:07;20.50;95.00
53422;DHT22;39319;52.944;5.928;2023-08-30T15:24:32;20.90;94.30
53422;DHT22;39319;52.944;5.928;2023-08-30T15:26:58;21.20;93.90
53422;DHT22;39319;52.944;5.928;2023-08-30T15:29:24;21.50;93.30
53422;DHT22;39319;52.944;5.928;2023-08-30T15:31:50;21.50;91.90
53422;DHT22;39319;52.944;5.928;2023-08-30T15:34:20;21.30;91.60
53422;DHT22;39319;52.944;5.928;2023-08-30T15:36:46;21.10;91.50
53422;DHT22;39319;52.944;5.928;2023-08-30T15:39:13;20.90;92.00
53422;DHT22;39319;52.944;5.928;2023-08-30T15:41:44;20.80;92.30